DNAA/ABV METAR and TAF weather

Enter ICAO airport designator
Station Type Date Time Source
DNAA METAR 2020/06/06 09:00 UTC NOAA

DNAA 060900Z 23004KT 9999 BKN011 28/24 Q1017 NOSIG


Station Type Date Time Source
DNAA Decoded METAR 2020/06/06 09:00 UTC NOAA

Station name not available
Jun 06, 2020 - 05:00 AM EDT / 2020.06.06 0900 UTC
Wind: from the SW (230 degrees) at 5 MPH (4 KT):0
Visibility: greater than 7 mile(s):0
Sky conditions: mostly cloudy
Temperature: 82 F (28 C)
Dew Point: 75 F (24 C)
Relative Humidity: 78%
Pressure (altimeter): 30.03 in. Hg (1017 hPa)
ob: DNAA 060900Z 23004KT 9999 BKN011 28/24 Q1017 NOSIG
cycle: 9

Station Type Date Time Source
DNAA TAF 2020/06/06 06:36 UTC NOAA

TAF TAF DNAA 060500Z 0606/0712 13005KT 9999 SCT009
BECMG 0608/0610 25010KT
BECMG 0610/0612 BKN013
TEMPO 0615/0621 TS SCT012 FEW0 20CB
BECMG 0621/0623 11005KT SCT010

Example: see airport list